sensor_id;sensor_type;location;lat;lon;timestamp;P1;durP1;ratioP1;P2;durP2;ratioP2
65275;SDS011;51875;49.994;14.052;2022-09-09T00:04:30;2.45;;;1.70;;
65275;SDS011;51875;49.994;14.052;2022-09-09T00:05:52;12.48;;;3.08;;
65275;SDS011;51875;49.994;14.052;2022-09-09T00:10:38;2.10;;;1.90;;
65275;SDS011;51875;49.994;14.052;2022-09-09T00:13:34;2.30;;;1.98;;
65275;SDS011;51875;49.994;14.052;2022-09-09T00:15:02;2.72;;;1.80;;
65275;SDS011;51875;49.994;14.052;2022-09-09T00:16:30;4.40;;;1.85;;
65275;SDS011;51875;49.994;14.052;2022-09-09T00:19:43;4.40;;;2.08;;
65275;SDS011;51875;49.994;14.052;2022-09-09T00:21:06;5.40;;;2.05;;
65275;SDS011;51875;49.994;14.052;2022-09-09T00:22:28;6.10;;;2.80;;
65275;SDS011;51875;49.994;14.052;2022-09-09T00:28:24;6.18;;;2.22;;
65275;SDS011;51875;49.994;14.052;2022-09-09T00:29:47;3.55;;;2.28;;
65275;SDS011;51875;49.994;14.052;2022-09-09T00:31:12;8.35;;;2.67;;
65275;SDS011;51875;49.994;14.052;2022-09-09T00:32:30;3.25;;;1.80;;
65275;SDS011;51875;49.994;14.052;2022-09-09T00:33:50;2.90;;;2.25;;
65275;SDS011;51875;49.994;14.052;2022-09-09T00:36:41;4.82;;;2.65;;
65275;SDS011;51875;49.994;14.052;2022-09-09T00:38:04;6.90;;;2.75;;
65275;SDS011;51875;49.994;14.052;2022-09-09T00:39:40;4.32;;;3.20;;
65275;SDS011;51875;49.994;14.052;2022-09-09T00:42:41;5.00;;;2.95;;
65275;SDS011;51875;49.994;14.052;2022-09-09T00:44:22;6.97;;;3.50;;
65275;SDS011;51875;49.994;14.052;2022-09-09T00:46:12;6.85;;;4.80;;
65275;SDS011;51875;49.994;14.052;2022-09-09T00:47:50;4.30;;;3.58;;
65275;SDS011;51875;49.994;14.052;2022-09-09T00:50:57;5.65;;;3.63;;
65275;SDS011;51875;49.994;14.052;2022-09-09T00:57:28;5.90;;;3.20;;
65275;SDS011;51875;49.994;14.052;2022-09-09T01:01:11;4.53;;;2.80;;
65275;SDS011;51875;49.994;14.052;2022-09-09T01:02:36;6.32;;;2.60;;
65275;SDS011;51875;49.994;14.052;2022-09-09T01:03:58;10.10;;;2.85;;
65275;SDS011;51875;49.994;14.052;2022-09-09T01:05:23;4.13;;;2.22;;
65275;SDS011;51875;49.994;14.052;2022-09-09T01:06:45;3.90;;;2.50;;
65275;SDS011;51875;49.994;14.052;2022-09-09T01:08:10;5.60;;;2.63;;
65275;SDS011;51875;49.994;14.052;2022-09-09T01:09:48;5.45;;;2.42;;
65275;SDS011;51875;49.994;14.052;2022-09-09T01:11:30;4.00;;;2.30;;
65275;SDS011;51875;49.994;14.052;2022-09-09T01:12:52;2.83;;;2.28;;
65275;SDS011;51875;49.994;14.052;2022-09-09T01:15:51;2.80;;;2.13;;
65275;SDS011;51875;49.994;14.052;2022-09-09T01:17:16;3.80;;;2.28;;
65275;SDS011;51875;49.994;14.052;2022-09-09T01:18:37;3.30;;;2.50;;
65275;SDS011;51875;49.994;14.052;2022-09-09T01:23:19;8.15;;;2.88;;
65275;SDS011;51875;49.994;14.052;2022-09-09T01:24:43;2.92;;;2.60;;
65275;SDS011;51875;49.994;14.052;2022-09-09T01:27:35;4.55;;;3.20;;
65275;SDS011;51875;49.994;14.052;2022-09-09T01:28:51;5.30;;;3.50;;
65275;SDS011;51875;49.994;14.052;2022-09-09T01:30:09;5.65;;;3.28;;
65275;SDS011;51875;49.994;14.052;2022-09-09T01:31:30;6.97;;;3.10;;
65275;SDS011;51875;49.994;14.052;2022-09-09T01:32:53;53.88;;;4.25;;
65275;SDS011;51875;49.994;14.052;2022-09-09T01:34:14;62.28;;;4.82;;
65275;SDS011;51875;49.994;14.052;2022-09-09T01:37:04;18.50;;;2.70;;
65275;SDS011;51875;49.994;14.052;2022-09-09T01:38:22;7.88;;;3.20;;
65275;SDS011;51875;49.994;14.052;2022-09-09T01:39:40;16.27;;;3.00;;
65275;SDS011;51875;49.994;14.052;2022-09-09T01:40:58;13.98;;;2.75;;
65275;SDS011;51875;49.994;14.052;2022-09-09T01:42:15;12.20;;;2.78;;
65275;SDS011;51875;49.994;14.052;2022-09-09T01:43:31;14.30;;;2.70;;
65275;SDS011;51875;49.994;14.052;2022-09-09T01:44:47;25.70;;;3.08;;
65275;SDS011;51875;49.994;14.052;2022-09-09T01:46:03;4.15;;;2.30;;
65275;SDS011;51875;49.994;14.052;2022-09-09T01:47:18;8.85;;;2.50;;
65275;SDS011;51875;49.994;14.052;2022-09-09T01:48:34;11.45;;;2.78;;
65275;SDS011;51875;49.994;14.052;2022-09-09T01:49:49;11.07;;;2.40;;
65275;SDS011;51875;49.994;14.052;2022-09-09T01:51:07;8.90;;;2.22;;
65275;SDS011;51875;49.994;14.052;2022-09-09T01:52:23;25.33;;;3.00;;
65275;SDS011;51875;49.994;14.052;2022-09-09T01:53:39;29.27;;;3.30;;
65275;SDS011;51875;49.994;14.052;2022-09-09T01:54:57;17.45;;;2.50;;
65275;SDS011;51875;49.994;14.052;2022-09-09T01:56:26;29.83;;;3.00;;
65275;SDS011;51875;49.994;14.052;2022-09-09T02:03:00;5.68;;;1.90;;
65275;SDS011;51875;49.994;14.052;2022-09-09T02:05:50;7.18;;;1.90;;
65275;SDS011;51875;49.994;14.052;2022-09-09T02:08:57;5.38;;;1.80;;
65275;SDS011;51875;49.994;14.052;2022-09-09T02:10:17;1.83;;;1.65;;
65275;SDS011;51875;49.994;14.052;2022-09-09T02:11:44;6.15;;;1.85;;
65275;SDS011;51875;49.994;14.052;2022-09-09T02:13:12;3.95;;;1.95;;
65275;SDS011;51875;49.994;14.052;2022-09-09T02:14:34;3.67;;;1.70;;
65275;SDS011;51875;49.994;14.052;2022-09-09T02:16:01;3.97;;;1.75;;
65275;SDS011;51875;49.994;14.052;2022-09-09T02:17:28;4.00;;;1.63;;
65275;SDS011;51875;49.994;14.052;2022-09-09T02:20:22;8.30;;;1.88;;
65275;SDS011;51875;49.994;14.052;2022-09-09T02:21:39;2.75;;;1.83;;
65275;SDS011;51875;49.994;14.052;2022-09-09T02:22:57;2.67;;;1.80;;
65275;SDS011;51875;49.994;14.052;2022-09-09T02:24:14;2.30;;;1.90;;
65275;SDS011;51875;49.994;14.052;2022-09-09T02:25:30;3.53;;;1.80;;
65275;SDS011;51875;49.994;14.052;2022-09-09T02:26:50;3.40;;;1.90;;
65275;SDS011;51875;49.994;14.052;2022-09-09T02:28:10;3.65;;;2.00;;
65275;SDS011;51875;49.994;14.052;2022-09-09T02:29:34;5.57;;;1.88;;
65275;SDS011;51875;49.994;14.052;2022-09-09T02:30:53;36.58;;;3.70;;
65275;SDS011;51875;49.994;14.052;2022-09-09T02:32:11;11.05;;;2.42;;
65275;SDS011;51875;49.994;14.052;2022-09-09T02:33:33;22.38;;;2.75;;
65275;SDS011;51875;49.994;14.052;2022-09-09T02:34:56;16.08;;;2.42;;
65275;SDS011;51875;49.994;14.052;2022-09-09T02:36:16;5.88;;;2.03;;
65275;SDS011;51875;49.994;14.052;2022-09-09T02:37:37;2.63;;;1.80;;
65275;SDS011;51875;49.994;14.052;2022-09-09T02:38:54;2.95;;;2.10;;
65275;SDS011;51875;49.994;14.052;2022-09-09T02:40:11;3.35;;;2.17;;
65275;SDS011;51875;49.994;14.052;2022-09-09T02:41:32;2.00;;;1.75;;
65275;SDS011;51875;49.994;14.052;2022-09-09T02:42:50;2.10;;;1.90;;
65275;SDS011;51875;49.994;14.052;2022-09-09T02:44:10;3.20;;;2.03;;
65275;SDS011;51875;49.994;14.052;2022-09-09T02:45:36;5.97;;;2.38;;
65275;SDS011;51875;49.994;14.052;2022-09-09T02:50:17;5.22;;;2.58;;
65275;SDS011;51875;49.994;14.052;2022-09-09T02:51:46;17.85;;;3.30;;
65275;SDS011;51875;49.994;14.052;2022-09-09T02:53:22;5.97;;;2.85;;
65275;SDS011;51875;49.994;14.052;2022-09-09T02:54:44;7.32;;;2.47;;
65275;SDS011;51875;49.994;14.052;2022-09-09T02:56:13;4.93;;;2.55;;
65275;SDS011;51875;49.994;14.052;2022-09-09T02:57:32;11.18;;;2.83;;
65275;SDS011;51875;49.994;14.052;2022-09-09T02:58:49;9.45;;;2.70;;
65275;SDS011;51875;49.994;14.052;2022-09-09T03:00:07;39.03;;;4.40;;
65275;SDS011;51875;49.994;14.052;2022-09-09T03:01:23;34.17;;;3.75;;
65275;SDS011;51875;49.994;14.052;2022-09-09T03:02:39;32.15;;;4.30;;
65275;SDS011;51875;49.994;14.052;2022-09-09T03:03:54;71.55;;;5.07;;
65275;SDS011;51875;49.994;14.052;2022-09-09T03:05:10;25.63;;;3.42;;
65275;SDS011;51875;49.994;14.052;2022-09-09T03:06:25;21.98;;;3.90;;
65275;SDS011;51875;49.994;14.052;2022-09-09T03:07:42;68.95;;;5.18;;
65275;SDS011;51875;49.994;14.052;2022-09-09T03:08:58;56.75;;;4.43;;
65275;SDS011;51875;49.994;14.052;2022-09-09T03:10:15;32.10;;;3.75;;
65275;SDS011;51875;49.994;14.052;2022-09-09T03:11:31;115.53;;;6.72;;
65275;SDS011;51875;49.994;14.052;2022-09-09T03:12:47;21.25;;;3.50;;
65275;SDS011;51875;49.994;14.052;2022-09-09T03:14:02;60.58;;;5.88;;
65275;SDS011;51875;49.994;14.052;2022-09-09T03:15:18;27.02;;;3.50;;
65275;SDS011;51875;49.994;14.052;2022-09-09T03:16:34;152.57;;;7.63;;
65275;SDS011;51875;49.994;14.052;2022-09-09T03:17:50;65.40;;;4.47;;
65275;SDS011;51875;49.994;14.052;2022-09-09T03:19:06;33.95;;;3.47;;
65275;SDS011;51875;49.994;14.052;2022-09-09T03:20:22;9.73;;;2.70;;
65275;SDS011;51875;49.994;14.052;2022-09-09T03:21:40;102.10;;;5.63;;
65275;SDS011;51875;49.994;14.052;2022-09-09T03:22:56;76.40;;;5.28;;
65275;SDS011;51875;49.994;14.052;2022-09-09T03:24:12;135.43;;;7.25;;
65275;SDS011;51875;49.994;14.052;2022-09-09T03:25:29;135.82;;;8.13;;
65275;SDS011;51875;49.994;14.052;2022-09-09T03:26:45;37.40;;;3.70;;
65275;SDS011;51875;49.994;14.052;2022-09-09T03:28:01;160.57;;;9.52;;
65275;SDS011;51875;49.994;14.052;2022-09-09T03:29:17;68.22;;;5.10;;
65275;SDS011;51875;49.994;14.052;2022-09-09T03:30:33;38.63;;;4.25;;
65275;SDS011;51875;49.994;14.052;2022-09-09T03:31:49;14.68;;;3.17;;
65275;SDS011;51875;49.994;14.052;2022-09-09T03:33:06;196.65;;;11.55;;
65275;SDS011;51875;49.994;14.052;2022-09-09T03:34:21;158.27;;;8.88;;
65275;SDS011;51875;49.994;14.052;2022-09-09T03:35:37;122.13;;;7.85;;
65275;SDS011;51875;49.994;14.052;2022-09-09T03:36:52;161.27;;;10.75;;
65275;SDS011;51875;49.994;14.052;2022-09-09T03:38:08;59.28;;;5.15;;
65275;SDS011;51875;49.994;14.052;2022-09-09T03:39:24;83.15;;;5.43;;
65275;SDS011;51875;49.994;14.052;2022-09-09T03:40:47;65.45;;;4.57;;
65275;SDS011;51875;49.994;14.052;2022-09-09T03:42:04;11.52;;;3.00;;
65275;SDS011;51875;49.994;14.052;2022-09-09T03:43:21;75.82;;;5.15;;
65275;SDS011;51875;49.994;14.052;2022-09-09T03:44:37;33.63;;;3.58;;
65275;SDS011;51875;49.994;14.052;2022-09-09T03:45:52;43.70;;;5.35;;
65275;SDS011;51875;49.994;14.052;2022-09-09T03:47:08;40.28;;;3.78;;
65275;SDS011;51875;49.994;14.052;2022-09-09T03:48:24;41.17;;;4.57;;
65275;SDS011;51875;49.994;14.052;2022-09-09T03:49:40;106.10;;;6.00;;
65275;SDS011;51875;49.994;14.052;2022-09-09T03:50:56;40.22;;;4.10;;
65275;SDS011;51875;49.994;14.052;2022-09-09T03:52:12;47.03;;;4.18;;
65275;SDS011;51875;49.994;14.052;2022-09-09T03:53:29;54.92;;;4.05;;
65275;SDS011;51875;49.994;14.052;2022-09-09T03:54:45;40.25;;;4.00;;
65275;SDS011;51875;49.994;14.052;2022-09-09T03:56:00;31.05;;;3.83;;
65275;SDS011;51875;49.994;14.052;2022-09-09T03:57:17;91.03;;;5.57;;
65275;SDS011;51875;49.994;14.052;2022-09-09T03:58:34;46.20;;;3.97;;
65275;SDS011;51875;49.994;14.052;2022-09-09T03:59:50;47.95;;;4.82;;
65275;SDS011;51875;49.994;14.052;2022-09-09T04:01:06;55.53;;;3.70;;
65275;SDS011;51875;49.994;14.052;2022-09-09T04:02:32;57.38;;;4.88;;
65275;SDS011;51875;49.994;14.052;2022-09-09T04:03:48;59.72;;;4.28;;
65275;SDS011;51875;49.994;14.052;2022-09-09T04:05:05;32.38;;;3.17;;
65275;SDS011;51875;49.994;14.052;2022-09-09T04:06:21;57.55;;;3.60;;
65275;SDS011;51875;49.994;14.052;2022-09-09T04:07:36;104.03;;;5.10;;
65275;SDS011;51875;49.994;14.052;2022-09-09T04:08:52;34.03;;;3.45;;
65275;SDS011;51875;49.994;14.052;2022-09-09T04:10:08;64.50;;;5.15;;
65275;SDS011;51875;49.994;14.052;2022-09-09T04:11:24;36.33;;;3.30;;
65275;SDS011;51875;49.994;14.052;2022-09-09T04:12:39;62.65;;;4.20;;
65275;SDS011;51875;49.994;14.052;2022-09-09T04:13:55;38.65;;;3.28;;
65275;SDS011;51875;49.994;14.052;2022-09-09T04:15:10;19.73;;;2.85;;
65275;SDS011;51875;49.994;14.052;2022-09-09T04:16:26;46.15;;;3.75;;
65275;SDS011;51875;49.994;14.052;2022-09-09T04:17:41;41.38;;;3.40;;
65275;SDS011;51875;49.994;14.052;2022-09-09T04:18:57;41.03;;;3.10;;
65275;SDS011;51875;49.994;14.052;2022-09-09T04:20:14;36.80;;;3.45;;
65275;SDS011;51875;49.994;14.052;2022-09-09T04:21:30;40.35;;;3.38;;
65275;SDS011;51875;49.994;14.052;2022-09-09T04:22:45;20.17;;;2.35;;
65275;SDS011;51875;49.994;14.052;2022-09-09T04:24:02;29.23;;;2.55;;
65275;SDS011;51875;49.994;14.052;2022-09-09T04:25:17;22.95;;;2.47;;
65275;SDS011;51875;49.994;14.052;2022-09-09T04:26:33;21.70;;;2.50;;
65275;SDS011;51875;49.994;14.052;2022-09-09T04:27:55;16.20;;;2.83;;
65275;SDS011;51875;49.994;14.052;2022-09-09T04:29:11;40.80;;;3.17;;
65275;SDS011;51875;49.994;14.052;2022-09-09T04:30:27;33.40;;;2.85;;
65275;SDS011;51875;49.994;14.052;2022-09-09T04:31:42;19.88;;;2.28;;
65275;SDS011;51875;49.994;14.052;2022-09-09T04:32:58;16.27;;;2.30;;
65275;SDS011;51875;49.994;14.052;2022-09-09T04:34:14;26.83;;;2.50;;
65275;SDS011;51875;49.994;14.052;2022-09-09T04:35:29;22.45;;;2.05;;
65275;SDS011;51875;49.994;14.052;2022-09-09T04:36:45;26.25;;;2.70;;
65275;SDS011;51875;49.994;14.052;2022-09-09T04:38:01;30.20;;;2.80;;
65275;SDS011;51875;49.994;14.052;2022-09-09T04:39:20;30.08;;;3.15;;
65275;SDS011;51875;49.994;14.052;2022-09-09T04:40:36;19.63;;;2.03;;
65275;SDS011;51875;49.994;14.052;2022-09-09T04:41:51;21.42;;;2.60;;
65275;SDS011;51875;49.994;14.052;2022-09-09T04:43:08;25.15;;;2.50;;
65275;SDS011;51875;49.994;14.052;2022-09-09T04:44:24;15.25;;;1.85;;
65275;SDS011;51875;49.994;14.052;2022-09-09T04:45:41;19.08;;;2.03;;
65275;SDS011;51875;49.994;14.052;2022-09-09T04:46:57;11.55;;;1.90;;
65275;SDS011;51875;49.994;14.052;2022-09-09T04:48:12;1.80;;;1.70;;
65275;SDS011;51875;49.994;14.052;2022-09-09T04:49:29;4.28;;;1.60;;
65275;SDS011;51875;49.994;14.052;2022-09-09T04:50:55;5.93;;;2.00;;
65275;SDS011;51875;49.994;14.052;2022-09-09T04:52:12;11.18;;;2.08;;
65275;SDS011;51875;49.994;14.052;2022-09-09T04:53:27;10.68;;;2.17;;
65275;SDS011;51875;49.994;14.052;2022-09-09T04:54:43;7.55;;;2.28;;
65275;SDS011;51875;49.994;14.052;2022-09-09T04:56:01;12.10;;;3.00;;
65275;SDS011;51875;49.994;14.052;2022-09-09T04:57:21;6.15;;;2.05;;
65275;SDS011;51875;49.994;14.052;2022-09-09T04:58:37;9.88;;;2.15;;
65275;SDS011;51875;49.994;14.052;2022-09-09T04:59:53;3.95;;;2.42;;
65275;SDS011;51875;49.994;14.052;2022-09-09T05:01:13;18.52;;;2.35;;
65275;SDS011;51875;49.994;14.052;2022-09-09T05:02:36;27.08;;;2.83;;
65275;SDS011;51875;49.994;14.052;2022-09-09T05:03:53;45.45;;;3.03;;
65275;SDS011;51875;49.994;14.052;2022-09-09T05:05:09;32.92;;;3.85;;
65275;SDS011;51875;49.994;14.052;2022-09-09T05:06:26;41.60;;;3.17;;
65275;SDS011;51875;49.994;14.052;2022-09-09T05:07:41;98.70;;;4.68;;
65275;SDS011;51875;49.994;14.052;2022-09-09T05:08:58;78.53;;;5.40;;
65275;SDS011;51875;49.994;14.052;2022-09-09T05:10:20;46.30;;;3.95;;
65275;SDS011;51875;49.994;14.052;2022-09-09T05:11:35;32.25;;;2.90;;
65275;SDS011;51875;49.994;14.052;2022-09-09T05:12:52;87.22;;;5.13;;
65275;SDS011;51875;49.994;14.052;2022-09-09T05:14:08;109.55;;;6.78;;
65275;SDS011;51875;49.994;14.052;2022-09-09T05:15:26;82.80;;;4.60;;
65275;SDS011;51875;49.994;14.052;2022-09-09T05:16:42;82.72;;;4.72;;
65275;SDS011;51875;49.994;14.052;2022-09-09T05:17:59;61.20;;;3.90;;
65275;SDS011;51875;49.994;14.052;2022-09-09T05:19:21;34.15;;;3.10;;
65275;SDS011;51875;49.994;14.052;2022-09-09T05:21:03;52.95;;;3.28;;
65275;SDS011;51875;49.994;14.052;2022-09-09T05:22:19;85.95;;;4.75;;
65275;SDS011;51875;49.994;14.052;2022-09-09T05:23:35;11.27;;;2.30;;
65275;SDS011;51875;49.994;14.052;2022-09-09T05:24:51;92.55;;;5.55;;
65275;SDS011;51875;49.994;14.052;2022-09-09T05:26:08;132.75;;;7.35;;
65275;SDS011;51875;49.994;14.052;2022-09-09T05:27:28;89.43;;;6.25;;
65275;SDS011;51875;49.994;14.052;2022-09-09T05:28:43;19.45;;;2.83;;
65275;SDS011;51875;49.994;14.052;2022-09-09T05:30:00;32.22;;;2.65;;
65275;SDS011;51875;49.994;14.052;2022-09-09T05:31:16;58.53;;;5.15;;
65275;SDS011;51875;49.994;14.052;2022-09-09T05:32:32;64.47;;;3.95;;
65275;SDS011;51875;49.994;14.052;2022-09-09T05:33:49;26.98;;;2.80;;
65275;SDS011;51875;49.994;14.052;2022-09-09T05:35:04;32.92;;;2.90;;
65275;SDS011;51875;49.994;14.052;2022-09-09T05:36:23;33.50;;;2.85;;
65275;SDS011;51875;49.994;14.052;2022-09-09T05:37:38;16.25;;;2.55;;
65275;SDS011;51875;49.994;14.052;2022-09-09T05:39:03;14.20;;;2.70;;
65275;SDS011;51875;49.994;14.052;2022-09-09T05:40:19;35.50;;;2.88;;
65275;SDS011;51875;49.994;14.052;2022-09-09T05:41:36;37.28;;;3.00;;
65275;SDS011;51875;49.994;14.052;2022-09-09T05:42:55;52.97;;;4.55;;
65275;SDS011;51875;49.994;14.052;2022-09-09T05:44:17;68.60;;;3.80;;
65275;SDS011;51875;49.994;14.052;2022-09-09T05:45:34;60.75;;;4.45;;
65275;SDS011;51875;49.994;14.052;2022-09-09T05:46:50;37.40;;;4.15;;
65275;SDS011;51875;49.994;14.052;2022-09-09T05:48:05;31.40;;;2.95;;
65275;SDS011;51875;49.994;14.052;2022-09-09T05:49:22;59.70;;;3.45;;
65275;SDS011;51875;49.994;14.052;2022-09-09T05:50:38;34.42;;;2.47;;
65275;SDS011;51875;49.994;14.052;2022-09-09T05:51:54;37.85;;;3.47;;
65275;SDS011;51875;49.994;14.052;2022-09-09T05:53:10;32.13;;;2.50;;
65275;SDS011;51875;49.994;14.052;2022-09-09T05:54:25;50.20;;;2.80;;
65275;SDS011;51875;49.994;14.052;2022-09-09T05:55:41;25.88;;;2.17;;
65275;SDS011;51875;49.994;14.052;2022-09-09T05:56:57;19.95;;;2.15;;
65275;SDS011;51875;49.994;14.052;2022-09-09T05:58:13;29.63;;;2.25;;
65275;SDS011;51875;49.994;14.052;2022-09-09T05:59:30;20.50;;;1.98;;
65275;SDS011;51875;49.994;14.052;2022-09-09T06:00:47;28.58;;;2.42;;
65275;SDS011;51875;49.994;14.052;2022-09-09T06:02:03;27.25;;;2.60;;
65275;SDS011;51875;49.994;14.052;2022-09-09T06:03:18;16.52;;;2.30;;
65275;SDS011;51875;49.994;14.052;2022-09-09T06:04:34;49.13;;;2.80;;
65275;SDS011;51875;49.994;14.052;2022-09-09T06:05:56;75.50;;;4.30;;
65275;SDS011;51875;49.994;14.052;2022-09-09T06:07:13;54.42;;;3.22;;
65275;SDS011;51875;49.994;14.052;2022-09-09T06:08:29;26.88;;;2.20;;
65275;SDS011;51875;49.994;14.052;2022-09-09T06:09:45;39.83;;;3.70;;
65275;SDS011;51875;49.994;14.052;2022-09-09T06:11:01;22.38;;;2.35;;
65275;SDS011;51875;49.994;14.052;2022-09-09T06:12:18;18.13;;;2.28;;
65275;SDS011;51875;49.994;14.052;2022-09-09T06:13:35;14.35;;;2.83;;
65275;SDS011;51875;49.994;14.052;2022-09-09T06:14:52;42.88;;;2.47;;
65275;SDS011;51875;49.994;14.052;2022-09-09T06:16:08;27.70;;;2.50;;
65275;SDS011;51875;49.994;14.052;2022-09-09T06:17:28;4.78;;;1.70;;
65275;SDS011;51875;49.994;14.052;2022-09-09T06:18:44;32.53;;;3.67;;
65275;SDS011;51875;49.994;14.052;2022-09-09T06:20:00;38.03;;;2.63;;
65275;SDS011;51875;49.994;14.052;2022-09-09T06:21:16;8.38;;;2.10;;
65275;SDS011;51875;49.994;14.052;2022-09-09T06:22:35;22.50;;;2.58;;
65275;SDS011;51875;49.994;14.052;2022-09-09T06:23:50;4.07;;;2.20;;
65275;SDS011;51875;49.994;14.052;2022-09-09T06:25:07;9.23;;;2.33;;
65275;SDS011;51875;49.994;14.052;2022-09-09T06:26:24;10.10;;;2.30;;
65275;SDS011;51875;49.994;14.052;2022-09-09T06:27:42;3.10;;;2.00;;
65275;SDS011;51875;49.994;14.052;2022-09-09T06:28:59;7.50;;;2.22;;
65275;SDS011;51875;49.994;14.052;2022-09-09T06:30:15;8.90;;;2.83;;
65275;SDS011;51875;49.994;14.052;2022-09-09T06:31:33;8.00;;;2.67;;
65275;SDS011;51875;49.994;14.052;2022-09-09T06:32:55;7.28;;;2.40;;
65275;SDS011;51875;49.994;14.052;2022-09-09T06:34:10;9.80;;;2.20;;
65275;SDS011;51875;49.994;14.052;2022-09-09T06:35:26;14.98;;;2.72;;
65275;SDS011;51875;49.994;14.052;2022-09-09T06:36:41;4.90;;;2.10;;
65275;SDS011;51875;49.994;14.052;2022-09-09T06:37:57;12.18;;;2.67;;
65275;SDS011;51875;49.994;14.052;2022-09-09T06:39:13;22.58;;;3.17;;
65275;SDS011;51875;49.994;14.052;2022-09-09T06:40:30;7.47;;;2.33;;
65275;SDS011;51875;49.994;14.052;2022-09-09T06:41:46;8.50;;;2.90;;
65275;SDS011;51875;49.994;14.052;2022-09-09T06:43:02;47.15;;;4.63;;
65275;SDS011;51875;49.994;14.052;2022-09-09T06:44:18;20.83;;;3.03;;
65275;SDS011;51875;49.994;14.052;2022-09-09T06:45:34;12.27;;;2.78;;
65275;SDS011;51875;49.994;14.052;2022-09-09T06:46:51;17.33;;;3.25;;
65275;SDS011;51875;49.994;14.052;2022-09-09T06:48:07;25.63;;;3.33;;
65275;SDS011;51875;49.994;14.052;2022-09-09T06:49:23;8.45;;;3.00;;
65275;SDS011;51875;49.994;14.052;2022-09-09T06:50:39;12.05;;;3.45;;
65275;SDS011;51875;49.994;14.052;2022-09-09T06:51:55;9.43;;;3.00;;
65275;SDS011;51875;49.994;14.052;2022-09-09T06:53:10;6.32;;;2.63;;
65275;SDS011;51875;49.994;14.052;2022-09-09T06:54:26;19.92;;;3.28;;
65275;SDS011;51875;49.994;14.052;2022-09-09T06:55:42;53.28;;;4.50;;
65275;SDS011;51875;49.994;14.052;2022-09-09T06:56:59;28.17;;;3.83;;
65275;SDS011;51875;49.994;14.052;2022-09-09T06:58:15;24.88;;;4.15;;
65275;SDS011;51875;49.994;14.052;2022-09-09T06:59:31;4.95;;;3.17;;
65275;SDS011;51875;49.994;14.052;2022-09-09T07:00:47;7.28;;;3.60;;
65275;SDS011;51875;49.994;14.052;2022-09-09T07:02:03;10.65;;;4.00;;
65275;SDS011;51875;49.994;14.052;2022-09-09T07:03:19;4.82;;;3.53;;
65275;SDS011;51875;49.994;14.052;2022-09-09T07:04:35;3.65;;;3.30;;
65275;SDS011;51875;49.994;14.052;2022-09-09T07:05:55;4.65;;;3.78;;
65275;SDS011;51875;49.994;14.052;2022-09-09T07:07:11;5.43;;;3.92;;
65275;SDS011;51875;49.994;14.052;2022-09-09T07:08:29;6.13;;;3.75;;
65275;SDS011;51875;49.994;14.052;2022-09-09T07:09:45;4.78;;;4.07;;
65275;SDS011;51875;49.994;14.052;2022-09-09T07:11:01;4.72;;;3.80;;
65275;SDS011;51875;49.994;14.052;2022-09-09T07:12:19;4.40;;;3.85;;
65275;SDS011;51875;49.994;14.052;2022-09-09T07:13:35;6.18;;;4.40;;
65275;SDS011;51875;49.994;14.052;2022-09-09T07:14:51;6.25;;;4.78;;
65275;SDS011;51875;49.994;14.052;2022-09-09T07:16:07;5.60;;;4.43;;
65275;SDS011;51875;49.994;14.052;2022-09-09T07:17:24;5.63;;;4.20;;
65275;SDS011;51875;49.994;14.052;2022-09-09T07:18:40;4.80;;;3.80;;
65275;SDS011;51875;49.994;14.052;2022-09-09T07:19:57;5.43;;;4.15;;
65275;SDS011;51875;49.994;14.052;2022-09-09T07:21:13;4.20;;;3.80;;
65275;SDS011;51875;49.994;14.052;2022-09-09T07:22:29;5.38;;;3.92;;
65275;SDS011;51875;49.994;14.052;2022-09-09T07:23:45;5.93;;;4.00;;
65275;SDS011;51875;49.994;14.052;2022-09-09T07:25:00;5.57;;;4.38;;
65275;SDS011;51875;49.994;14.052;2022-09-09T07:26:18;4.82;;;4.32;;
65275;SDS011;51875;49.994;14.052;2022-09-09T07:27:34;5.10;;;4.55;;
65275;SDS011;51875;49.994;14.052;2022-09-09T07:28:50;7.18;;;4.75;;
65275;SDS011;51875;49.994;14.052;2022-09-09T07:30:06;4.82;;;4.18;;
65275;SDS011;51875;49.994;14.052;2022-09-09T07:31:23;6.30;;;4.30;;
65275;SDS011;51875;49.994;14.052;2022-09-09T07:32:41;6.75;;;4.35;;
65275;SDS011;51875;49.994;14.052;2022-09-09T07:33:57;5.63;;;3.80;;
65275;SDS011;51875;49.994;14.052;2022-09-09T07:35:14;4.07;;;3.38;;
65275;SDS011;51875;49.994;14.052;2022-09-09T07:36:31;7.95;;;4.07;;
65275;SDS011;51875;49.994;14.052;2022-09-09T07:37:51;4.43;;;3.85;;
65275;SDS011;51875;49.994;14.052;2022-09-09T07:39:08;7.95;;;4.05;;
65275;SDS011;51875;49.994;14.052;2022-09-09T07:40:25;4.13;;;3.72;;
65275;SDS011;51875;49.994;14.052;2022-09-09T07:41:42;4.53;;;3.50;;
65275;SDS011;51875;49.994;14.052;2022-09-09T07:43:02;3.45;;;3.03;;
65275;SDS011;51875;49.994;14.052;2022-09-09T07:44:19;4.97;;;3.42;;
65275;SDS011;51875;49.994;14.052;2022-09-09T07:45:36;4.15;;;3.25;;
65275;SDS011;51875;49.994;14.052;2022-09-09T07:46:52;4.40;;;3.50;;
65275;SDS011;51875;49.994;14.052;2022-09-09T07:48:08;4.80;;;3.90;;
65275;SDS011;51875;49.994;14.052;2022-09-09T07:49:24;6.60;;;3.92;;
65275;SDS011;51875;49.994;14.052;2022-09-09T07:50:39;5.47;;;3.75;;
65275;SDS011;51875;49.994;14.052;2022-09-09T07:51:55;4.28;;;3.72;;
65275;SDS011;51875;49.994;14.052;2022-09-09T07:53:11;3.90;;;3.50;;
65275;SDS011;51875;49.994;14.052;2022-09-09T07:54:26;4.68;;;3.22;;
65275;SDS011;51875;49.994;14.052;2022-09-09T07:55:42;4.15;;;3.60;;
65275;SDS011;51875;49.994;14.052;2022-09-09T07:56:58;5.68;;;3.58;;
65275;SDS011;51875;49.994;14.052;2022-09-09T07:58:13;5.25;;;4.20;;
65275;SDS011;51875;49.994;14.052;2022-09-09T07:59:29;6.00;;;3.42;;
65275;SDS011;51875;49.994;14.052;2022-09-09T08:00:45;4.80;;;3.88;;
65275;SDS011;51875;49.994;14.052;2022-09-09T08:02:00;5.90;;;3.63;;
65275;SDS011;51875;49.994;14.052;2022-09-09T08:03:16;4.65;;;3.90;;
65275;SDS011;51875;49.994;14.052;2022-09-09T08:04:32;6.03;;;4.43;;
65275;SDS011;51875;49.994;14.052;2022-09-09T08:05:48;4.35;;;3.95;;
65275;SDS011;51875;49.994;14.052;2022-09-09T08:07:03;6.32;;;3.60;;
65275;SDS011;51875;49.994;14.052;2022-09-09T08:08:19;5.85;;;3.60;;
65275;SDS011;51875;49.994;14.052;2022-09-09T08:09:35;5.40;;;3.20;;
65275;SDS011;51875;49.994;14.052;2022-09-09T08:10:50;4.47;;;3.60;;
65275;SDS011;51875;49.994;14.052;2022-09-09T08:12:08;3.83;;;2.95;;
65275;SDS011;51875;49.994;14.052;2022-09-09T08:13:24;4.00;;;3.60;;
65275;SDS011;51875;49.994;14.052;2022-09-09T08:14:39;4.40;;;3.60;;
65275;SDS011;51875;49.994;14.052;2022-09-09T08:15:55;4.60;;;3.65;;
65275;SDS011;51875;49.994;14.052;2022-09-09T08:17:18;5.53;;;3.50;;
65275;SDS011;51875;49.994;14.052;2022-09-09T08:18:33;3.40;;;2.80;;
65275;SDS011;51875;49.994;14.052;2022-09-09T08:19:49;8.02;;;2.63;;
65275;SDS011;51875;49.994;14.052;2022-09-09T08:21:06;2.75;;;2.50;;
65275;SDS011;51875;49.994;14.052;2022-09-09T08:22:24;2.42;;;2.17;;
65275;SDS011;51875;49.994;14.052;2022-09-09T08:23:40;3.53;;;2.40;;
65275;SDS011;51875;49.994;14.052;2022-09-09T08:24:56;3.10;;;2.30;;
65275;SDS011;51875;49.994;14.052;2022-09-09T08:26:14;2.33;;;1.98;;
65275;SDS011;51875;49.994;14.052;2022-09-09T08:27:31;3.63;;;1.90;;
65275;SDS011;51875;49.994;14.052;2022-09-09T08:28:47;2.97;;;1.98;;